Weather observations for the past three days for
Sebastian Municipal Airport
Metric (Imperial)
Date Time (edt) Wind (kph) Vis. (km) Weather Sky Cond. Temperature (ºC) Relative Humidity Wind Chill (°C) Heat Index (°C) Pressure Precipitation (cm)
Air Dwpt 6 hour altimeter (cm) sea level (mb) 1 hr 3 hr 6 hr
Max. Min.
07 07:35 N 2 16.09 Light Rain CLR 19 19 100% 76.25 0.0
07 07:16 Calm 6.44 Light Rain Fog/Mist CLR 19 19 100% 76.23 0.0
07 06:55 SW 4 16.09 Fair CLR 18 18 100% 76.23 0.0
07 06:35 W 6 16.09 Fair CLR 18 18 100% 76.2 0.0
07 06:15 W 4 16.09 Fair CLR 18 18 100% 76.17 0.0
07 05:55 S 2 16.09 Fair CLR 18 18 100% 76.15 0.0
07 05:35 SW 2 16.09 Fair CLR 19 19 100% 76.15 0.0
07 05:15 W 4 16.09 Fair CLR 19 19 100% 76.15 0.0
07 04:55 S 4 16.09 Fair CLR 19 19 100% 76.1 0.0
07 04:35 S 4 16.09 Fair CLR 19 19 100% 76.12 0.0
07 04:15 W 2 16.09 Fair CLR 19 19 100% 76.12 0.0
07 03:55 W 2 16.09 Fair CLR 19 19 100% 76.12 0.0
07 03:35 NW 4 16.09 Fair CLR 20 20 100% 76.12 0.0
07 03:15 W 4 16.09 Fair CLR 19 19 100% 76.15 0.0
07 02:55 W 4 16.09 Fair CLR 20 20 100% 76.17 0.0
07 02:36 W 2 16.09 Fair CLR 20 20 100% 76.17 0.0
07 02:15 Calm 16.09 Fair CLR 20 20 100% 76.17 0.0
07 01:55 SW 4 16.09 Fair CLR 20 20 26.2 20.5 100% 76.2 0.0
07 01:35 W 7 16.09 Fair CLR 21 20 94% 76.23 0.0
07 01:15 W 11 16.09 Fair CLR 23 21 89% 76.25 0.0
07 00:55 S 6 16.09 Fair CLR 24 21 83% 24 76.23 0.0
07 00:35 SE 7 16.09 Fair CLR 24 21 83% 24 76.23 0.0
07 00:15 SE 9 16.09 Fair CLR 24 21 83% 24 76.23 0.0
06 23:55 SE 11 16.09 Fair CLR 24 21 83% 24 76.23 0.0
06 23:35 SE 13 16.09 Fair CLR 24 21 83% 24 76.23 0.0
06 23:15 SE 13 16.09 Fair CLR 25 21 79% 26 76.2 0.0
06 22:35 SE 13 16.09 Fair CLR 25 21 79% 26 76.23 0.0
06 22:15 SE 11 16.09 Fair CLR 25 21 79% 26 76.25 0.0
06 21:55 SE 11 16.09 Fair CLR 25 21 79% 26 76.25 0.0
06 21:35 SE 9 16.09 Fair CLR 25 21 79% 26 76.25 0.0
06 21:15 SE 11 16.09 Fair CLR 25 20 74% 26 76.23 0.0
06 20:55 SE 11 16.09 Fair CLR 25 20 74% 26 76.23 0.0
06 20:35 SE 11 16.09 Fair CLR 25 19 69% 26 76.2 0.0
06 20:15 SE 11 16.09 Fair CLR 25 19 69% 26 76.2 0.0
06 19:55 SE 15 16.09 Fair CLR 26 19 30.6 26.2 65% 27 76.2 0.0
06 19:35 SE 15 16.09 Fair CLR 27 18 58% 28 76.2 0.0
06 19:15 SE 17 16.09 Fair CLR 27 18 58% 28 76.2 0.0
06 18:55 E 20 16.09 Fair CLR 28 18 55% 29 76.2 0.0
06 18:35 E 20 16.09 Fair CLR 28 17 51% 29 76.2 0.0
06 17:55 SE 19 16.09 Fair CLR 29 19 55% 30 76.2 0.0
06 17:35 E 19 16.09 Fair CLR 29 19 55% 30 76.23 0.0
06 17:15 E 20 16.09 Fair CLR 29 20 58% 31 76.2 0.0
06 16:55 E 19 16.09 Fair CLR 29 20 58% 31 76.2 0.0
06 16:35 E 19 16.09 Fair CLR 29 20 58% 31 76.2 0.0
06 16:15 E 22 16.09 Fair CLR 29 20 58% 31 76.2 0.0
06 15:55 SE 20 16.09 Fair CLR 30 19 52% 31 76.23 0.0
06 15:35 E 19 G 30 16.09 Fair CLR 30 19 52% 31 76.23 0.0
06 15:15 E 20 G 26 16.09 Fair CLR 30 19 52% 31 76.23 0.0
06 14:55 E 17 16.09 Fair CLR 30 18 49% 31 76.25 0.0
06 14:35 E 19 16.09 Fair CLR 30 19 52% 31 76.28 0.0
06 14:15 E 19 16.09 Fair CLR 30 19 52% 31 76.28 0.0
06 13:55 E 17 16.09 Fair CLR 30 19 30.6 20.2 52% 31 76.3 0.0
06 13:35 E 17 16.09 Fair CLR 30 18 49% 31 76.3 0.0
06 13:15 E 15 16.09 Fair CLR 30 19 52% 31 76.3 0.0
06 12:55 E 11 16.09 Fair CLR 30 17 46% 30 76.3 0.0
06 12:35 E 17 16.09 Fair CLR 30 18 49% 31 76.33 0.0
06 12:15 E 17 16.09 Fair CLR 30 19 52% 31 76.33 0.0
06 11:55 E 15 16.09 Fair CLR 30 19 52% 31 76.33 0.0
06 11:35 SE 11 16.09 Fair CLR 29 19 55% 30 76.33 0.0
06 11:15 SE 15 16.09 Fair CLR 29 21 62% 31 76.33 0.0
06 10:55 SE 13 16.09 Fair CLR 28 21 66% 30 76.33 0.0
06 10:35 E 13 16.09 Fair CLR 28 22 70% 31 76.33 0.0
06 10:15 SE 13 16.09 Fair CLR 27 22 74% 29 76.33 0.0
06 09:55 SE 13 16.09 Fair CLR 27 23 79% 30 76.3 0.0
06 09:35 SE 11 16.09 Fair CLR 26 22 79% 28 76.3 0.0
06 09:15 SE 13 16.09 Fair CLR 26 23 84% 28 76.28 0.0
06 08:55 E 11 16.09 Fair CLR 25 23 89% 26 76.28 0.0
06 08:15 Calm 16.09 Fair CLR 22 21 94% 76.28 0.0
06 07:55 Calm 12.87 Light Rain CLR 20 20 23.2 18.3 100% 76.25 0.0
06 07:35 Calm 6.44 Light Rain Fog/Mist CLR 19 19 100% 76.25 0.0
06 06:55 W 4 16.09 Fair CLR 18 18 100% 76.23 0.0
06 06:35 W 2 16.09 Fair CLR 19 19 100% 76.2 0.0
06 06:15 SW 2 16.09 Fair CLR 19 19 100% 76.2 0.0
06 05:55 Calm 16.09 Fair CLR 19 19 100% 76.2 0.0
06 05:35 Calm 16.09 Fair CLR 19 19 100% 76.17 0.0
06 05:15 Calm 16.09 Fair CLR 19 19 100% 76.17 0.0
06 04:55 Calm 16.09 Fair CLR 19 19 100% 76.17 0.0
06 04:35 S 2 16.09 Fair CLR 19 19 100% 76.17 0.0
06 04:15 S 2 16.09 Fair CLR 20 20 100% 76.17 0.0
06 03:55 Calm 16.09 Fair CLR 20 20 100% 76.17 0.0
06 03:35 SE 2 16.09 Fair CLR 21 20 94% 76.17 0.0
06 03:15 SE 4 16.09 Fair CLR 21 20 94% 76.2 0.0
06 02:55 E 6 16.09 Fair CLR 23 21 89% 76.2 0.0
06 02:35 E 6 16.09 Fair CLR 23 21 89% 76.2 0.0
06 02:15 E 6 16.09 Fair CLR 23 20 83% 76.23 0.0
06 01:55 E 7 16.09 Fair CLR 23 21 24.4 22.8 89% 76.23 0.0
06 01:35 E 9 16.09 Fair CLR 23 21 89% 76.23 0.0
06 01:15 SE 7 16.09 Fair CLR 23 21 89% 76.25 0.0
06 00:55 E 7 16.09 Fair CLR 23 20 83% 76.23 0.0
06 00:35 E 11 16.09 Fair CLR 24 20 78% 24 76.23 0.0
06 00:15 E 11 16.09 Fair CLR 24 20 78% 24 76.25 0.0
05 23:55 E 9 16.09 Fair CLR 24 19 74% 25 76.25 0.0
05 23:35 E 11 16.09 Fair CLR 24 19 74% 25 76.28 0.0
05 23:15 E 9 16.09 Fair CLR 24 19 74% 25 76.28 0.0
05 22:55 E 11 16.09 Fair CLR 24 19 74% 25 76.25 0.0
05 22:35 E 17 16.09 Fair CLR 24 19 74% 25 76.25 0.0
05 22:15 E 13 16.09 Fair CLR 24 19 74% 25 76.23 0.0
05 21:55 E 15 16.09 Fair CLR 24 19 74% 25 76.23 0.0
05 21:35 E 15 16.09 Fair CLR 24 19 74% 25 76.2 0.0
05 21:15 E 17 16.09 Fair CLR 24 18 69% 25 76.2 0.0
05 20:55 E 15 16.09 Fair CLR 24 18 69% 25 76.17 0.0
05 20:35 E 15 16.09 Fair CLR 24 18 69% 25 76.17 0.0
05 20:15 E 15 16.09 Fair CLR 24 18 69% 25 76.15 0.0
05 19:55 NE 17 16.09 Fair CLR 24 18 28.1 24.3 69% 25 76.15 0.0
05 19:35 E 17 16.09 Fair CLR 25 18 65% 26 76.15 0.0
05 19:15 E 15 16.09 Fair CLR 25 18 65% 26 76.15 0.0
05 18:55 NE 20 16.09 Fair CLR 26 18 61% 27 76.17 0.0
05 18:35 NE 20 16.09 Fair CLR 26 19 65% 27 76.2 0.0
05 18:15 NE 17 16.09 Fair CLR 26 18 61% 27 76.17 0.0
05 17:55 NE 19 16.09 Fair CLR 27 18 58% 28 76.17 0.0
05 17:35 E 19 16.09 Fair CLR 27 18 58% 28 76.15 0.0
05 17:15 E 20 16.09 Fair CLR 27 18 58% 28 76.15 0.0
05 16:55 NE 20 16.09 Fair CLR 27 18 58% 28 76.15 0.0
05 16:35 E 22 16.09 Fair CLR 27 18 58% 28 76.15 0.0
05 16:15 NE 24 16.09 Fair CLR 28 19 58% 29 76.15 0.0
05 15:55 NE 22 G 30 16.09 Fair CLR 28 19 58% 29 76.17 0.0
05 15:35 NE 22 16.09 Fair CLR 28 19 58% 29 76.2 0.0
05 15:15 NE 22 G 30 16.09 Fair CLR 28 18 55% 29 76.2 0.0
05 14:55 NE 20 G 28 16.09 Fair CLR 28 18 55% 29 76.23 0.0
05 14:35 NE 22 16.09 Fair CLR 28 18 55% 29 76.25 0.0
05 14:15 NE 20 G 28 16.09 Fair CLR 28 18 55% 29 76.25 0.0
05 13:55 E 17 G 31 16.09 A Few Clouds FEW065 28 18 28 23.7 55% 29 76.25 0.0
05 13:35 E 19 16.09 Mostly Cloudy BKN065 27 17 54% 28 76.25 0.0
05 13:15 E 20 16.09 Mostly Cloudy BKN055 27 18 58% 28 76.25 0.0
05 12:55 E 22 G 28 16.09 Mostly Cloudy BKN055 27 18 58% 28 76.28 0.0
05 12:35 E 20 16.09 Partly Cloudy SCT055 28 18 55% 29 76.28 0.0
05 12:15 E 20 16.09 Fair CLR 27 19 62% 28 76.25 0.0
05 11:55 E 24 G 31 16.09 Fair CLR 27 19 62% 28 76.28 0.0
05 11:35 E 19 16.09 Fair CLR 27 19 62% 28 76.28 0.0
05 11:15 E 26 16.09 Fair CLR 27 20 66% 29 76.25 0.0
05 10:55 E 24 16.09 Fair CLR 26 20 70% 27 76.23 0.0
05 10:35 E 22 G 31 16.09 Fair CLR 26 20 70% 27 76.23 0.0
05 10:15 E 24 16.09 Fair CLR 26 19 65% 27 76.25 0.0
05 09:55 E 20 16.09 Fair CLR 26 19 65% 27 76.23 0.0
05 09:35 E 19 16.09 Fair CLR 26 19 65% 27 76.2 0.0
05 09:15 E 22 16.09 Fair CLR 25 19 69% 26 76.2 0.0
05 08:55 E 22 16.09 A Few Clouds FEW060 25 19 69% 26 76.2 0.0
05 08:35 E 19 16.09 Partly Cloudy SCT060 25 19 69% 26 76.23 0.0
05 08:15 E 17 16.09 Fair CLR 24 19 74% 25 76.23 0.0
05 07:35 E 15 16.09 Fair CLR 23 18 74% 76.17 0.0
05 07:15 E 15 16.09 Fair CLR 23 18 74% 76.15 0.0
05 06:55 E 13 16.09 Fair CLR 22 18 78% 76.15 0.0
05 06:35 E 15 16.09 A Few Clouds FEW060 22 18 78% 76.12 0.0
05 06:15 E 13 16.09 A Few Clouds FEW060 22 18 78% 76.1 0.0
05 05:55 E 9 16.09 Fair CLR 22 18 78% 76.1 0.0
05 05:35 E 11 16.09 Fair CLR 21 18 83% 76.1 0.0
05 05:15 E 9 16.09 Fair CLR 21 18 83% 76.1 0.0
05 04:55 E 9 16.09 Fair CLR 22 18 78% 76.07 0.0
05 04:35 E 7 16.09 Fair CLR 21 18 83% 76.07 0.0
05 04:15 E 7 16.09 Fair CLR 22 18 78% 76.07 0.0
05 03:55 E 9 16.09 Fair CLR 22 18 78% 76.05 0.0
05 03:35 E 9 16.09 Fair CLR 22 18 78% 76.07 0.0
05 03:15 E 11 16.09 Fair CLR 22 18 78% 76.1 0.0
05 02:55 E 11 16.09 Fair CLR 22 18 78% 76.1 0.0
05 02:35 E 17 16.09 Fair CLR 23 18 74% 76.1 0.0
05 02:15 E 15 16.09 Fair CLR 23 18 74% 76.12 0.0
05 01:55 E 17 16.09 Partly Cloudy SCT032 23 18 23.6 22.2 74% 76.15 0.0
05 01:35 E 11 16.09 Mostly Cloudy BKN032 23 18 74% 76.17 0.0
05 01:15 E 15 16.09 Partly Cloudy SCT032 23 18 74% 76.17 0.0
05 00:55 E 15 16.09 A Few Clouds FEW032 23 18 74% 76.17 0.0
05 00:35 E 13 16.09 A Few Clouds FEW032 23 18 74% 76.17 0.0
05 00:15 E 13 16.09 Partly Cloudy FEW030 SCT037 23 19 78% 76.2 0.0
04 23:55 E 13 16.09 Partly Cloudy FEW030 SCT035 23 19 78% 76.17 0.0
04 23:35 E 13 16.09 Partly Cloudy SCT034 23 19 78% 76.2 0.0
04 23:15 E 15 16.09 A Few Clouds FEW029 FEW034 23 19 78% 76.23 0.0
04 22:55 E 17 16.09 Partly Cloudy FEW029 SCT034 SCT041 23 19 78% 76.2 0.0
04 22:35 E 17 16.09 A Few Clouds FEW029 FEW036 23 19 78% 76.2 0.0
04 22:15 E 13 16.09 Partly Cloudy SCT029 SCT040 23 19 78% 76.2 0.0
04 21:55 E 17 16.09 Mostly Cloudy FEW038 SCT046 BKN060 23 19 78% 76.2 0.0
04 21:35 E 17 16.09 Overcast FEW029 SCT040 OVC060 23 19 78% 76.2 0.0
04 21:15 E 15 16.09 Overcast BKN027 BKN034 OVC050 23 19 78% 76.2 0.0
04 20:55 E 13 16.09 Overcast BKN027 OVC034 23 20 83% 76.17 0.0
04 20:35 E 19 16.09 Mostly Cloudy BKN029 BKN040 23 19 78% 76.17 0.0
04 20:15 E 24 G 33 16.09 Mostly Cloudy SCT029 BKN038 BKN060 23 19 78% 76.15 0.0
04 19:55 E 17 16.09 Overcast BKN039 BKN049 OVC060 24 19 26.5 23.5 74% 25 76.15 0.0
04 19:35 E 22 16.09 Overcast FEW042 OVC060 24 19 74% 25 76.12 0.0
04 19:15 E 22 16.09 Mostly Cloudy BKN060 24 19 74% 25 76.12 0.0
04 18:55 E 22 16.09 Mostly Cloudy BKN050 24 18 69% 25 76.12 0.0
04 18:35 E 20 16.09 Mostly Cloudy BKN048 24 18 69% 25 76.12 0.0
04 18:15 E 26 16.09 Mostly Cloudy FEW034 BKN044 BKN050 25 18 65% 26 76.12 0.0
04 17:55 E 22 G 30 16.09 Mostly Cloudy SCT034 BKN042 26 18 61% 27 76.12 0.0
04 17:35 E 26 16.09 Mostly Cloudy FEW031 BKN037 26 18 61% 27 76.15 0.0
04 17:15 NE 26 G 35 16.09 Partly Cloudy SCT032 SCT040 25 18 65% 26 76.15 0.0
04 16:55 E 24 G 35 16.09 A Few Clouds FEW048 26 18 61% 27 76.15 0.0
04 16:35 E 28 G 33 16.09 Mostly Cloudy FEW031 BKN041 BKN048 26 18 61% 27 76.15 0.0
04 16:15 E 22 G 37 16.09 Overcast BKN034 OVC045 25 18 65% 26 76.17 0.0
04 15:55 NE 31 16.09 Partly Cloudy SCT033 SCT042 26 19 65% 27 76.17 0.0
04 15:35 NE 30 G 39 16.09 Partly Cloudy SCT038 SCT048 SCT055 26 18 61% 27 76.2 0.0
04 15:15 E 28 G 35 16.09 Mostly Cloudy SCT039 SCT049 BKN055 25 19 69% 26 76.2 0.0
04 14:55 E 22 16.09 Mostly Cloudy BKN036 BKN048 BKN065 25 19 69% 26 76.23 0.0
04 14:35 NE 28 16.09 Mostly Cloudy BKN037 BKN045 BKN065 25 19 69% 26 76.25 0.0
04 14:15 NE 28 G 39 16.09 Overcast FEW030 BKN037 OVC049 25 19 69% 26 76.25 0.0
04 13:55 NE 28 G 39 16.09 Overcast SCT030 BKN035 OVC048 25 19 27.2 23.2 69% 26 76.25 0.0
04 13:35 NE 28 G 37 16.09 Overcast SCT030 BKN036 OVC050 25 19 69% 26 76.28 0.0
04 13:15 NE 26 G 43 16.09 Mostly Cloudy SCT034 SCT048 BKN060 26 19 65% 27 76.28 0.0
04 12:55 NE 30 G 43 16.09 Mostly Cloudy BKN060 26 19 65% 27 76.28 0.0
04 12:35 NE 28 G 37 16.09 Overcast SCT037 SCT044 OVC050 26 19 65% 27 76.3 0.0
04 12:15 NE 31 G 41 16.09 Mostly Cloudy SCT039 BKN050 BKN060 26 19 65% 27 76.28 0.0
04 11:55 NE 28 16.09 Overcast SCT035 SCT044 OVC050 25 18 65% 26 76.3 0.0
04 11:35 NE 28 16.09 Overcast SCT032 SCT042 OVC050 25 19 69% 26 76.3 0.0
04 11:15 NE 28 G 35 16.09 Overcast FEW032 BKN050 OVC055 25 19 69% 26 76.3 0.0
04 10:55 NE 26 G 37 16.09 Overcast FEW035 FEW042 OVC055 25 19 69% 26 76.3 0.0
04 10:36 NE 30 G 39 16.09 Overcast SCT043 OVC055 25 19 69% 26 76.28 0.0
04 10:15 NE 24 G 37 16.09 Overcast SCT033 OVC040 24 18 69% 25 76.28 0.0
04 09:55 NE 28 G 41 16.09 Mostly Cloudy FEW032 BKN038 26 19 65% 27 76.25 0.0
04 09:35 NE 19 16.09 Partly Cloudy SCT060 25 17 61% 26 76.25 0.0
04 09:15 N 20 16.09 Overcast SCT050 OVC060 24 18 69% 25 76.23 0.0
04 08:55 NE 20 G 30 16.09 Overcast OVC050 24 18 69% 25 76.2 0.0
04 08:35 NE 22 G 30 16.09 Overcast FEW033 OVC045 24 18 69% 25 76.2 0.0
04 08:15 NE 20 G 31 16.09 Overcast SCT032 BKN038 OVC044 23 18 74% 76.17 0.0
04 07:55 NE 20 G 33 16.09 Overcast SCT030 BKN040 OVC060 23 19 23.4 22.8 78% 76.17 0.0
Date Time (edt) Wind (kph) Vis. (km) Weather Sky Cond. Air Dwpt Max. Min. Relative Humidity Wind Chill (°C) Heat Index (°C) altimeter (cm) sea level (mb) 1 hr 3 hr 6 hr
6 hour
Temperature (ºC) Pressure Precipitation (cm)